createdAt,value
2022-10-17T00:01:09.483Z,98128.78
2022-10-17T00:03:38.627Z,98105.06
2022-10-17T00:06:08.462Z,98121.31
2022-10-17T00:08:38.250Z,98108.88
2022-10-17T00:11:10.096Z,98107.38
2022-10-17T00:13:38.097Z,98127.13
2022-10-17T00:16:06.730Z,98142.03
2022-10-17T00:18:34.675Z,98162.44
2022-10-17T00:21:02.596Z,98176.91
2022-10-17T00:23:30.704Z,98185.69
2022-10-17T00:26:05.628Z,98182.38
2022-10-17T00:28:34.236Z,98188.19
2022-10-17T00:31:04.207Z,98201.16
2022-10-17T00:33:32.268Z,98205.63
2022-10-17T00:36:05.232Z,98226.22
2022-10-17T00:38:33.202Z,98248.78
2022-10-17T00:41:01.177Z,98279.66
2022-10-17T00:43:31.415Z,98293.59
2022-10-17T00:45:59.417Z,98321.16
2022-10-17T00:48:27.393Z,98337.47
2022-10-17T00:50:55.976Z,98359.91
2022-10-17T00:53:23.870Z,98386.66
2022-10-17T00:55:54.142Z,98391.63
2022-10-17T00:58:22.511Z,98396.44
2022-10-17T01:00:51.826Z,98407.41
2022-10-17T01:03:20.001Z,98412.56
2022-10-17T01:05:48.098Z,98386.97
2022-10-17T01:08:16.250Z,98391.63
2022-10-17T01:10:55.475Z,98383.31
2022-10-17T01:13:31.443Z,98397.78
2022-10-17T01:16:08.699Z,98402.59
2022-10-17T01:18:47.302Z,98420.22
2022-10-17T01:21:31.663Z,98430.56
2022-10-17T01:24:20.282Z,98440.19
2022-10-17T01:27:04.244Z,98424.84
2022-10-17T01:29:54.349Z,98418.72
2022-10-17T01:32:32.749Z,98430.69
2022-10-17T01:35:07.806Z,98442.84
2022-10-17T01:37:43.283Z,98441.84
2022-10-17T01:40:16.654Z,98466.09
2022-10-17T01:42:52.424Z,98480.75
2022-10-17T01:45:31.125Z,98508.38
2022-10-17T01:48:05.799Z,98508.53
2022-10-17T01:50:37.500Z,98534.97
2022-10-17T01:53:12.014Z,98546.31
2022-10-17T01:55:45.672Z,98562.09
2022-10-17T01:58:19.201Z,98572.25
2022-10-17T02:00:50.468Z,98572.41
2022-10-17T02:03:22.177Z,98565.59
2022-10-17T02:05:50.113Z,98577.41
2022-10-17T02:08:27.360Z,98553.56
2022-10-17T02:10:59.399Z,98565.25
2022-10-17T02:13:40.170Z,98580.22
2022-10-17T02:16:22.075Z,98594.53
2022-10-17T02:19:08.567Z,98620.81
2022-10-17T02:21:46.522Z,98594.84
2022-10-17T02:24:21.796Z,98589.84
2022-10-17T02:26:57.483Z,98581.72
2022-10-17T02:29:30.824Z,98580.22
2022-10-17T02:32:04.181Z,98601.84
2022-10-17T02:34:38.042Z,98629.59
2022-10-17T02:37:09.028Z,98633.63
2022-10-17T02:39:38.294Z,98621.44
2022-10-17T02:42:11.467Z,98655.78
2022-10-17T02:44:44.429Z,98670.75
2022-10-17T02:47:21.270Z,98666.56
2022-10-17T02:49:53.048Z,98657.22
2022-10-17T02:52:28.370Z,98623.16
2022-10-17T02:55:01.662Z,98633.47
2022-10-17T02:57:36.694Z,98607.81
2022-10-17T03:00:07.755Z,98585.88
2022-10-17T03:02:40.955Z,98593.88
2022-10-17T03:05:12.611Z,98562.44
2022-10-17T03:07:40.703Z,98526.63
2022-10-17T03:10:09.169Z,98541.94
2022-10-17T03:12:37.176Z,98529.66
2022-10-17T03:15:06.072Z,98526.31
2022-10-17T03:17:34.281Z,98513.53
2022-10-17T03:20:02.226Z,98497.06
2022-10-17T03:22:32.057Z,98478.78
2022-10-17T03:25:00.228Z,98410.59
2022-10-17T03:27:28.523Z,98418.22
2022-10-17T03:29:56.515Z,98391.63
2022-10-17T03:32:24.438Z,98376.84
2022-10-17T03:34:52.651Z,98355.09
2022-10-17T03:37:20.724Z,98348.44
2022-10-17T03:39:50.104Z,98325.19
2022-10-17T03:42:18.185Z,98346.78
2022-10-17T03:44:46.338Z,98341.47
2022-10-17T03:47:14.475Z,98308.88
2022-10-17T03:49:42.410Z,98295.47
2022-10-17T03:52:12.770Z,98302.31
2022-10-17T03:54:40.681Z,98320.56
2022-10-17T03:57:09.885Z,98321.72
2022-10-17T03:59:38.247Z,98313.91
2022-10-17T04:02:06.092Z,98261.25
2022-10-17T04:04:34.025Z,98278.34
2022-10-17T04:07:02.270Z,98242.47
2022-10-17T04:09:30.749Z,98244.81
2022-10-17T04:11:58.769Z,98242.81
2022-10-17T04:14:28.536Z,98229.53
2022-10-17T04:16:58.328Z,98220.91
2022-10-17T04:19:26.600Z,98244.81
2022-10-17T04:21:54.636Z,98237.69
2022-10-17T04:24:22.615Z,98211.94
2022-10-17T04:26:50.999Z,98199.16
2022-10-17T04:29:19.404Z,98165.44
2022-10-17T04:31:49.868Z,98152.34
2022-10-17T04:34:17.772Z,98140.25
2022-10-17T04:36:45.882Z,98148.19
2022-10-17T04:41:42.051Z,98123.16
2022-10-17T04:44:11.346Z,98102.06
2022-10-17T04:46:39.642Z,98114.53
2022-10-17T04:49:10.080Z,98103.41
2022-10-17T04:51:39.550Z,98094.78
2022-10-17T04:54:07.572Z,98111.38
2022-10-17T04:56:35.574Z,98074.22
2022-10-17T04:59:03.507Z,98112.69
2022-10-17T05:01:34.373Z,98133.44
2022-10-17T05:04:02.299Z,98110.69
2022-10-17T05:06:32.581Z,98144.56
2022-10-17T05:09:00.393Z,98142.91
2022-10-17T05:11:30.817Z,98130.44
2022-10-17T05:14:00.734Z,98106.56
2022-10-17T05:16:29.804Z,98106.72
2022-10-17T05:18:59.664Z,98097.94
2022-10-17T05:21:28.777Z,98098.78
2022-10-17T05:23:58.557Z,98110.03
2022-10-17T05:26:27.206Z,98090.16
2022-10-17T05:28:55.204Z,98104.41
2022-10-17T05:31:23.280Z,98088.31
2022-10-17T05:33:51.107Z,98089.47
2022-10-17T05:36:19.153Z,98105.72
2022-10-17T05:38:51.182Z,98090.47
2022-10-17T05:41:21.009Z,98064.78
2022-10-17T05:43:50.257Z,98065.56
2022-10-17T05:46:18.626Z,98052.00
2022-10-17T05:48:46.685Z,98046.66
2022-10-17T05:51:14.508Z,98030.75
2022-10-17T05:53:43.548Z,98036.88
2022-10-17T05:56:14.410Z,98072.56
2022-10-17T05:58:50.434Z,98085.16
2022-10-17T06:01:20.321Z,98120.34
2022-10-17T06:03:48.571Z,98130.78
2022-10-17T06:06:17.334Z,98100.09
2022-10-17T06:08:46.117Z,98123.66
2022-10-17T06:11:14.736Z,98128.78
2022-10-17T06:13:44.200Z,98165.13
2022-10-17T06:16:12.193Z,98157.88
2022-10-17T06:18:40.523Z,98170.44
2022-10-17T06:21:11.272Z,98184.06
2022-10-17T06:23:39.378Z,98190.84
2022-10-17T06:26:08.147Z,98173.91
2022-10-17T06:28:37.177Z,98191.22
2022-10-17T06:31:08.402Z,98168.78
2022-10-17T06:33:37.355Z,98182.09
2022-10-17T06:36:06.112Z,98198.34
2022-10-17T06:38:35.747Z,98246.16
2022-10-17T06:41:08.335Z,98261.91
2022-10-17T06:43:36.910Z,98324.41
2022-10-17T06:46:04.835Z,98394.31
2022-10-17T06:48:34.378Z,98451.38
2022-10-17T06:51:02.655Z,98541.34
2022-10-17T06:53:31.712Z,98613.88
2022-10-17T06:56:03.053Z,98676.94
2022-10-17T06:58:32.164Z,98746.03
2022-10-17T07:01:01.307Z,98753.06
2022-10-17T07:03:30.344Z,98717.03
2022-10-17T07:05:59.872Z,98709.06
2022-10-17T07:08:28.372Z,98728.66
2022-10-17T07:10:57.098Z,98798.16
2022-10-17T07:13:25.769Z,98847.31
2022-10-17T07:18:26.450Z,98919.97
2022-10-17T07:20:55.334Z,99026.53
2022-10-17T07:23:25.159Z,99188.56
2022-10-17T07:25:53.043Z,99505.38
2022-10-17T07:28:21.090Z,99828.03
2022-10-17T07:30:52.070Z,100128.47
2022-10-17T07:33:22.717Z,100421.41
2022-10-17T07:35:52.707Z,100547.44
2022-10-17T07:38:20.543Z,100662.28
2022-10-17T07:40:56.832Z,100697.31
2022-10-17T07:43:24.830Z,100666.53
2022-10-17T07:45:53.779Z,100676.97
2022-10-17T07:48:23.109Z,100526.88
2022-10-17T07:50:52.200Z,100561.69
2022-10-17T07:53:20.853Z,100485.41
2022-10-17T07:55:49.782Z,100481.47
2022-10-17T07:58:19.812Z,100514.31
2022-10-17T08:00:49.050Z,100650.88
2022-10-17T08:03:17.150Z,100577.91
2022-10-17T08:05:45.269Z,100680.38
2022-10-17T08:08:13.233Z,100852.97
2022-10-17T08:10:41.567Z,101184.41
2022-10-17T08:13:09.388Z,101240.75
2022-10-17T08:15:39.942Z,101248.69
2022-10-17T08:18:08.516Z,101248.69
2022-10-17T08:20:36.448Z,101199.53
2022-10-17T08:23:04.319Z,101140.66
2022-10-17T08:25:32.838Z,100916.25
2022-10-17T08:28:00.980Z,100758.59
2022-10-17T08:30:30.772Z,100873.03
2022-10-17T08:33:00.203Z,100749.00
2022-10-17T08:35:31.476Z,100942.53
2022-10-17T08:38:01.749Z,101170.25
2022-10-17T08:40:33.999Z,101481.31
2022-10-17T08:43:16.431Z,101734.06
2022-10-17T08:45:49.339Z,102174.34
2022-10-17T08:48:21.449Z,102276.44
2022-10-17T08:50:53.028Z,102588.19
2022-10-17T08:53:24.250Z,102783.63
2022-10-17T08:55:54.227Z,102980.63
2022-10-17T08:58:26.173Z,102968.94
2022-10-17T09:01:03.807Z,102978.66
2022-10-17T09:04:00.952Z,102785.22
2022-10-17T09:06:34.410Z,102519.22
2022-10-17T09:09:16.100Z,102544.63
2022-10-17T09:11:59.753Z,102370.50
2022-10-17T09:14:50.988Z,102472.84
2022-10-17T09:17:29.025Z,102474.69
2022-10-17T09:20:04.396Z,102437.22
2022-10-17T09:22:39.054Z,102688.41
2022-10-17T09:25:21.055Z,102930.22
2022-10-17T09:27:52.773Z,102990.75
2022-10-17T09:30:46.164Z,103228.25
2022-10-17T09:33:35.296Z,102977.97
2022-10-17T09:36:12.305Z,102654.75
2022-10-17T09:38:43.243Z,102786.75
2022-10-17T09:41:43.732Z,103189.97
2022-10-17T09:44:30.961Z,103321.19
2022-10-17T09:47:20.274Z,103458.88
2022-10-17T09:49:50.203Z,103854.84
2022-10-17T09:52:21.474Z,104100.72
2022-10-17T09:54:55.778Z,104243.56
2022-10-17T09:57:24.270Z,104139.28
2022-10-17T09:59:59.670Z,104007.09
2022-10-17T10:02:29.165Z,103366.09
2022-10-17T10:05:05.032Z,103130.75
2022-10-17T10:07:38.346Z,102836.19
2022-10-17T10:10:08.655Z,102238.28
2022-10-17T10:12:39.081Z,101923.19
2022-10-17T10:15:35.922Z,101929.41
2022-10-17T10:18:05.025Z,101899.28
2022-10-17T10:20:36.063Z,102102.28
2022-10-17T10:23:17.464Z,102205.91
2022-10-17T10:25:56.016Z,102333.06
2022-10-17T10:28:28.265Z,102537.97
2022-10-17T10:30:57.591Z,103188.44
2022-10-17T10:33:28.486Z,103797.84
2022-10-17T10:35:59.322Z,104182.47
2022-10-17T10:38:29.472Z,104474.53
2022-10-17T10:41:02.967Z,104115.50
2022-10-17T10:43:35.837Z,104489.09
2022-10-17T10:46:07.878Z,104351.28
2022-10-17T10:48:37.618Z,104439.53
2022-10-17T10:51:09.782Z,104328.88
2022-10-17T10:53:46.704Z,104425.06
2022-10-17T10:56:20.862Z,104608.47
2022-10-17T10:58:56.132Z,104805.13
2022-10-17T11:01:31.608Z,105000.44
2022-10-17T11:04:14.535Z,104998.50
2022-10-17T11:06:45.754Z,104907.91
2022-10-17T11:09:30.082Z,105102.28
2022-10-17T11:12:06.633Z,105309.44
2022-10-17T11:14:45.078Z,105187.34
2022-10-17T11:17:29.456Z,105134.38
2022-10-17T11:20:04.654Z,104847.41
2022-10-17T11:22:36.136Z,104534.97
2022-10-17T11:25:16.104Z,104396.38
2022-10-17T11:27:44.275Z,103880.63
2022-10-17T11:30:16.144Z,103566.88
2022-10-17T11:32:47.869Z,103265.50
2022-10-17T11:35:22.210Z,102965.53
2022-10-17T11:37:57.631Z,102701.47
2022-10-17T11:40:32.544Z,102667.34
2022-10-17T11:43:03.022Z,102690.53
2022-10-17T11:45:36.665Z,102796.63
2022-10-17T11:48:11.874Z,102587.34
2022-10-17T11:53:42.260Z,102325.00
2022-10-17T11:56:13.857Z,102504.41
2022-10-17T11:58:47.221Z,102548.38
2022-10-17T12:01:23.673Z,102461.81
2022-10-17T12:04:06.623Z,102091.56
2022-10-17T12:06:47.539Z,101806.09
2022-10-17T12:09:26.698Z,101628.47
2022-10-17T12:11:58.404Z,101458.13
2022-10-17T12:14:38.318Z,101401.97
2022-10-17T12:17:07.625Z,101321.91
2022-10-17T12:19:37.856Z,101225.41
2022-10-17T12:22:18.283Z,101192.28
2022-10-17T12:24:53.900Z,101050.88
2022-10-17T12:27:34.264Z,100900.53
2022-10-17T12:30:03.705Z,100803.59
2022-10-17T12:32:46.993Z,100717.84
2022-10-17T12:35:23.356Z,100658.69
2022-10-17T12:38:30.365Z,100490.19
2022-10-17T12:41:06.107Z,100408.66
2022-10-17T12:43:46.268Z,100281.91
2022-10-17T12:46:34.857Z,100221.78
2022-10-17T12:49:05.826Z,100175.31
2022-10-17T12:52:06.866Z,100139.50
2022-10-17T12:54:53.533Z,100102.09
2022-10-17T12:57:34.678Z,100008.63
2022-10-17T13:00:15.567Z,100023.53
2022-10-17T13:02:44.122Z,99984.84
2022-10-17T13:05:17.616Z,99981.31
2022-10-17T13:07:47.446Z,99960.38
2022-10-17T13:10:23.063Z,99920.31
2022-10-17T13:12:52.015Z,99864.28
2022-10-17T13:15:22.148Z,99822.69
2022-10-17T13:17:58.049Z,99727.88
2022-10-17T13:20:31.274Z,99713.81
2022-10-17T13:23:00.431Z,99695.56
2022-10-17T13:25:29.535Z,99677.47
2022-10-17T13:28:14.077Z,99671.97
2022-10-17T13:30:49.671Z,99661.69
2022-10-17T13:33:32.289Z,99611.16
2022-10-17T13:36:01.682Z,99567.66
2022-10-17T13:38:35.630Z,99539.31
2022-10-17T13:41:30.494Z,99505.91
2022-10-17T13:43:54.368Z,99420.06
2022-10-17T13:46:37.928Z,99445.03
2022-10-17T13:49:13.195Z,99405.34
2022-10-17T13:51:45.241Z,99381.78
2022-10-17T13:54:40.836Z,99358.75
2022-10-17T13:57:20.412Z,99322.47
2022-10-17T13:59:51.199Z,99313.78
2022-10-17T14:02:21.978Z,99270.16
2022-10-17T14:05:18.527Z,99245.94
2022-10-17T14:10:43.244Z,99199.16
2022-10-17T14:13:20.974Z,99163.56
2022-10-17T14:15:49.192Z,99139.06
2022-10-17T14:18:22.385Z,99155.72
2022-10-17T14:23:44.381Z,99103.34
2022-10-17T14:26:15.871Z,99085.63
2022-10-17T14:28:48.789Z,99060.94
2022-10-17T14:31:31.766Z,99060.94
2022-10-17T14:34:02.740Z,99033.53
2022-10-17T14:36:38.927Z,98986.16
2022-10-17T14:39:16.828Z,98997.84
2022-10-17T14:41:47.057Z,98957.00
2022-10-17T14:44:21.926Z,98935.50
2022-10-17T14:46:55.130Z,98886.94
2022-10-17T14:49:29.337Z,98866.13
2022-10-17T14:52:26.529Z,98877.13
2022-10-17T14:54:55.001Z,98866.13
2022-10-17T14:57:26.959Z,98857.44
2022-10-17T14:59:56.054Z,98843.78
2022-10-17T15:02:25.329Z,98814.13
2022-10-17T15:04:55.227Z,98768.09
2022-10-17T15:07:23.967Z,98790.56
2022-10-17T15:09:54.252Z,98755.25
2022-10-17T15:12:25.130Z,98753.44
2022-10-17T15:14:53.968Z,98724.13
2022-10-17T15:17:33.978Z,98660.16
2022-10-17T15:20:03.574Z,98591.34
2022-10-17T15:22:32.065Z,98597.19
2022-10-17T15:25:00.169Z,98617.53
2022-10-17T15:27:29.751Z,98604.22
2022-10-17T15:29:57.910Z,98666.81
2022-10-17T15:32:30.878Z,98695.78
2022-10-17T15:34:59.241Z,98673.81
2022-10-17T15:37:34.851Z,98632.50
2022-10-17T15:40:03.124Z,98609.88
2022-10-17T15:42:31.550Z,98595.91
2022-10-17T15:45:02.396Z,98562.59
2022-10-17T15:47:33.997Z,98537.31
2022-10-17T15:50:02.825Z,98527.81
2022-10-17T15:52:32.010Z,98544.28
2022-10-17T15:55:02.539Z,98502.03
2022-10-17T15:57:39.215Z,98471.78
2022-10-17T16:00:16.649Z,98499.38
2022-10-17T16:02:45.293Z,98489.75
2022-10-17T16:05:19.339Z,98514.03
2022-10-17T16:07:48.853Z,98479.59
2022-10-17T16:10:17.402Z,98434.00
2022-10-17T16:12:50.432Z,98398.59
2022-10-17T16:15:23.378Z,98354.38
2022-10-17T16:17:53.962Z,98317.31
2022-10-17T16:20:35.577Z,98355.22
2022-10-17T16:23:05.404Z,98321.63
2022-10-17T16:25:33.822Z,98287.91
2022-10-17T16:28:02.470Z,98232.41
2022-10-17T16:30:32.581Z,98268.28
2022-10-17T16:33:00.766Z,98245.72
2022-10-17T16:35:33.350Z,98255.00
2022-10-17T16:38:06.921Z,98223.91
2022-10-17T16:40:35.119Z,98222.75
2022-10-17T16:43:03.009Z,98262.16
2022-10-17T16:45:31.942Z,98237.06
2022-10-17T16:47:59.770Z,98219.09
2022-10-17T16:50:27.773Z,98269.63
2022-10-17T16:52:55.708Z,98244.88
2022-10-17T16:55:24.903Z,98267.13
2022-10-17T16:57:52.725Z,98290.56
2022-10-17T17:00:20.762Z,98305.50
2022-10-17T17:02:49.486Z,98307.66
2022-10-17T17:05:17.661Z,98285.56
2022-10-17T17:07:47.853Z,98248.00
2022-10-17T17:10:16.038Z,98260.31
2022-10-17T17:12:45.520Z,98264.63
2022-10-17T17:15:13.622Z,98266.31
2022-10-17T17:17:51.423Z,98282.75
2022-10-17T17:20:20.355Z,98289.88
2022-10-17T17:22:48.757Z,98251.69
2022-10-17T17:25:17.330Z,98231.91
2022-10-17T17:27:46.750Z,98219.09
2022-10-17T17:30:14.580Z,98255.81
2022-10-17T17:32:42.631Z,98302.50
2022-10-17T17:35:10.991Z,98310.16
2022-10-17T17:37:39.456Z,98310.50
2022-10-17T17:40:08.591Z,98344.06
2022-10-17T17:42:36.455Z,98332.09
2022-10-17T17:45:07.037Z,98297.53
2022-10-17T17:47:34.853Z,98307.00
2022-10-17T17:50:03.621Z,98310.66
2022-10-17T17:52:32.147Z,98313.47
2022-10-17T17:55:00.171Z,98280.59
2022-10-17T17:57:30.462Z,98265.31
2022-10-17T17:59:58.470Z,98252.66
2022-10-17T18:02:27.961Z,98306.84
2022-10-17T18:04:56.066Z,98310.00
2022-10-17T18:07:24.101Z,98280.59
2022-10-17T18:09:52.217Z,98277.75
2022-10-17T18:12:20.264Z,98306.34
2022-10-17T18:14:49.073Z,98314.31
2022-10-17T18:17:16.987Z,98272.63
2022-10-17T18:19:46.344Z,98266.97
2022-10-17T18:22:14.416Z,98291.06
2022-10-17T18:24:42.437Z,98273.78
2022-10-17T18:27:10.399Z,98205.66
2022-10-17T18:29:38.468Z,98191.72
2022-10-17T18:32:08.797Z,98151.69
2022-10-17T18:34:36.969Z,98197.84
2022-10-17T18:37:06.317Z,98153.34
2022-10-17T18:39:34.370Z,98106.84
2022-10-17T18:42:02.853Z,98101.19
2022-10-17T18:44:30.892Z,98055.41
2022-10-17T18:47:03.054Z,98021.22
2022-10-17T18:49:32.764Z,98025.84
2022-10-17T18:52:00.720Z,98027.19
2022-10-17T18:54:32.224Z,98015.22
2022-10-17T18:57:00.409Z,97979.25
2022-10-17T18:59:28.693Z,97962.84
2022-10-17T19:01:56.710Z,97943.28
2022-10-17T19:04:24.724Z,97936.31
2022-10-17T19:06:52.740Z,97932.16
2022-10-17T19:09:20.962Z,97913.59
2022-10-17T19:11:50.570Z,97901.47
2022-10-17T19:14:18.574Z,97907.75
2022-10-17T19:16:48.199Z,97902.97
2022-10-17T19:19:18.224Z,97891.72
2022-10-17T19:21:46.689Z,97900.16
2022-10-17T19:24:16.280Z,97895.19
2022-10-17T19:26:47.877Z,97887.03
2022-10-17T19:29:18.846Z,97878.44
2022-10-17T19:31:47.664Z,97883.72
2022-10-17T19:34:16.986Z,97870.31
2022-10-17T19:36:45.209Z,97861.53
2022-10-17T19:39:16.089Z,97858.22
2022-10-17T19:41:46.136Z,97870.16
2022-10-17T19:44:14.526Z,97871.97
2022-10-17T19:46:46.879Z,97882.09
2022-10-17T19:49:15.529Z,97877.78
2022-10-17T19:51:43.430Z,97869.31
2022-10-17T19:54:11.406Z,97870.97
2022-10-17T19:56:40.553Z,97859.06
2022-10-17T19:59:09.223Z,97871.97
2022-10-17T20:01:39.653Z,97870.34
2022-10-17T20:04:11.040Z,97877.09
2022-10-17T20:06:39.773Z,97877.09
2022-10-17T20:09:12.359Z,97874.63
2022-10-17T20:11:43.844Z,97878.78
2022-10-17T20:14:11.809Z,97884.06
2022-10-17T20:16:39.660Z,97859.38
2022-10-17T20:19:11.241Z,97866.00
2022-10-17T20:21:40.542Z,97855.25
2022-10-17T20:24:09.963Z,97841.81
2022-10-17T20:26:39.480Z,97864.03
2022-10-17T20:29:11.006Z,97868.66
2022-10-17T20:31:40.134Z,97862.69
2022-10-17T20:34:12.485Z,97860.22
2022-10-17T20:36:40.940Z,97851.09
2022-10-17T20:39:08.922Z,97854.41
2022-10-17T20:41:37.181Z,97849.94
2022-10-17T20:44:07.012Z,97850.28
2022-10-17T20:46:37.821Z,97860.38
2022-10-17T20:49:15.644Z,97862.22
2022-10-17T20:51:43.565Z,97867.50
2022-10-17T20:54:11.827Z,97859.72
2022-10-17T20:56:39.935Z,97851.44
2022-10-17T20:59:12.303Z,97857.72
2022-10-17T21:01:41.076Z,97860.72
2022-10-17T21:04:40.573Z,97866.34
2022-10-17T21:06:58.664Z,97873.47
2022-10-17T21:09:26.937Z,97869.16
2022-10-17T21:11:56.064Z,97872.66
2022-10-17T21:14:25.341Z,97877.28
2022-10-17T21:16:53.251Z,97890.88
2022-10-17T21:19:22.796Z,97883.91
2022-10-17T21:21:54.063Z,97877.78
2022-10-17T21:24:22.013Z,97889.22
2022-10-17T21:26:55.779Z,97868.69
2022-10-17T21:29:24.538Z,97872.00
2022-10-17T21:31:52.996Z,97904.81
2022-10-17T21:34:24.605Z,97884.44
2022-10-17T21:36:53.399Z,97880.59
2022-10-17T21:39:22.995Z,97879.78
2022-10-17T21:41:50.863Z,97870.34
2022-10-17T21:44:22.078Z,97861.88
2022-10-17T21:46:50.366Z,97861.06
2022-10-17T21:49:20.881Z,97869.00
2022-10-17T21:51:52.738Z,97852.41
2022-10-17T21:54:22.879Z,97848.09
2022-10-17T21:56:51.508Z,97854.41
2022-10-17T21:59:19.453Z,97829.22
2022-10-17T22:01:47.924Z,97827.91
2022-10-17T22:04:17.433Z,97804.53
2022-10-17T22:06:47.709Z,97783.19
2022-10-17T22:09:20.388Z,97777.03
2022-10-17T22:11:50.671Z,97764.13
2022-10-17T22:14:19.962Z,97766.63
2022-10-17T22:16:49.047Z,97755.53
2022-10-17T22:19:19.351Z,97743.75
2022-10-17T22:21:47.449Z,97742.91
2022-10-17T22:24:18.766Z,97737.44
2022-10-17T22:26:47.652Z,97727.50
2022-10-17T22:29:15.637Z,97743.75
2022-10-17T22:31:44.126Z,97732.47
2022-10-17T22:34:13.907Z,97754.34
2022-10-17T22:36:42.496Z,97739.78
2022-10-17T22:39:11.056Z,97747.06
2022-10-17T22:41:40.383Z,97751.53
2022-10-17T22:44:08.501Z,97746.22
2022-10-17T22:46:36.423Z,97760.31
2022-10-17T22:49:04.312Z,97768.94
2022-10-17T22:51:32.288Z,97758.66
2022-10-17T22:54:00.368Z,97750.69
2022-10-17T22:56:28.509Z,97758.66
2022-10-17T22:58:58.041Z,97739.13
2022-10-17T23:01:27.053Z,97732.50
2022-10-17T23:03:55.159Z,97728.84
2022-10-17T23:06:23.812Z,97741.44
2022-10-17T23:08:52.324Z,97725.19
2022-10-17T23:11:20.874Z,97722.91
2022-10-17T23:13:49.023Z,97712.13
2022-10-17T23:16:18.655Z,97699.72
2022-10-17T23:18:46.670Z,97699.56
2022-10-17T23:21:14.516Z,97701.38
2022-10-17T23:23:42.622Z,97687.81
2022-10-17T23:26:12.255Z,97684.50
2022-10-17T23:28:41.064Z,97676.53
2022-10-17T23:31:14.479Z,97696.25
2022-10-17T23:33:45.169Z,97698.91
2022-10-17T23:36:14.886Z,97691.28
2022-10-17T23:38:44.228Z,97673.53
2022-10-17T23:41:12.729Z,97677.38
2022-10-17T23:43:40.782Z,97675.03
2022-10-17T23:46:09.233Z,97663.13
2022-10-17T23:48:38.574Z,97681.84
2022-10-17T23:51:08.752Z,97687.44
2022-10-17T23:53:37.146Z,97682.00
2022-10-17T23:56:05.617Z,97678.50
2022-10-17T23:58:33.717Z,97667.41
